sensor_id;sensor_type;location;lat;lon;timestamp;temperature;humidity
14521;DHT22;7347;50.844;4.490;2023-04-01T08:50:06;10.70;99.90
14521;DHT22;7347;50.844;4.490;2023-04-01T08:52:48;10.70;99.90
14521;DHT22;7347;50.844;4.490;2023-04-01T08:55:35;10.70;99.90
14521;DHT22;7347;50.844;4.490;2023-04-01T08:58:31;10.80;99.90
14521;DHT22;7347;50.844;4.490;2023-04-01T09:01:14;10.80;99.90
14521;DHT22;7347;50.844;4.490;2023-04-01T09:04:11;10.80;99.90
14521;DHT22;7347;50.844;4.490;2023-04-01T09:06:51;10.80;99.90
14521;DHT22;7347;50.844;4.490;2023-04-01T09:12:31;11.00;99.90
14521;DHT22;7347;50.844;4.490;2023-04-01T09:15:34;10.90;99.90
14521;DHT22;7347;50.844;4.490;2023-04-01T09:18:13;10.80;99.90
14521;DHT22;7347;50.844;4.490;2023-04-01T09:23:54;10.60;99.90
14521;DHT22;7347;50.844;4.490;2023-04-01T09:26:48;10.80;99.90
14521;DHT22;7347;50.844;4.490;2023-04-01T09:29:29;10.80;99.90
14521;DHT22;7347;50.844;4.490;2023-04-01T09:32:17;10.90;99.90
14521;DHT22;7347;50.844;4.490;2023-04-01T09:34:55;10.90;99.90
14521;DHT22;7347;50.844;4.490;2023-04-01T09:37:34;10.80;99.90
14521;DHT22;7347;50.844;4.490;2023-04-01T09:40:14;10.90;99.90
14521;DHT22;7347;50.844;4.490;2023-04-01T09:42:45;10.90;99.90
14521;DHT22;7347;50.844;4.490;2023-04-01T09:45:28;11.00;99.90
14521;DHT22;7347;50.844;4.490;2023-04-01T09:48:05;10.90;99.90
14521;DHT22;7347;50.844;4.490;2023-04-01T09:50:42;10.90;99.90
14521;DHT22;7347;50.844;4.490;2023-04-01T09:53:24;11.00;99.90
14521;DHT22;7347;50.844;4.490;2023-04-01T09:56:24;11.20;99.90
14521;DHT22;7347;50.844;4.490;2023-04-01T09:59:38;11.40;99.90
14521;DHT22;7347;50.844;4.490;2023-04-01T10:02:49;11.70;99.90
14521;DHT22;7347;50.844;4.490;2023-04-01T10:08:50;11.80;99.90
14521;DHT22;7347;50.844;4.490;2023-04-01T10:11:52;11.70;99.90
14521;DHT22;7347;50.844;4.490;2023-04-01T10:14:40;11.60;99.90
14521;DHT22;7347;50.844;4.490;2023-04-01T10:23:28;11.80;99.90
14521;DHT22;7347;50.844;4.490;2023-04-01T10:35:33;11.60;99.90
14521;DHT22;7347;50.844;4.490;2023-04-01T10:38:39;11.50;99.90
14521;DHT22;7347;50.844;4.490;2023-04-01T10:44:47;11.30;99.90
14521;DHT22;7347;50.844;4.490;2023-04-01T10:47:31;11.40;99.90
14521;DHT22;7347;50.844;4.490;2023-04-01T10:50:35;11.50;99.90
14521;DHT22;7347;50.844;4.490;2023-04-01T10:53:37;11.40;99.90
14521;DHT22;7347;50.844;4.490;2023-04-01T11:08:54;12.00;99.90
14521;DHT22;7347;50.844;4.490;2023-04-01T11:21:21;11.80;99.90
14521;DHT22;7347;50.844;4.490;2023-04-01T11:24:15;11.60;99.90
14521;DHT22;7347;50.844;4.490;2023-04-01T11:26:52;11.70;99.90
14521;DHT22;7347;50.844;4.490;2023-04-01T11:29:43;11.80;99.90
14521;DHT22;7347;50.844;4.490;2023-04-01T11:32:24;11.70;99.90
14521;DHT22;7347;50.844;4.490;2023-04-01T11:35:23;11.70;99.90
14521;DHT22;7347;50.844;4.490;2023-04-01T11:37:59;11.80;99.90
14521;DHT22;7347;50.844;4.490;2023-04-01T11:40:33;12.00;99.90
14521;DHT22;7347;50.844;4.490;2023-04-01T11:43:09;12.10;99.90
14521;DHT22;7347;50.844;4.490;2023-04-01T11:45:45;12.40;99.90
14521;DHT22;7347;50.844;4.490;2023-04-01T11:48:49;12.60;99.90
14521;DHT22;7347;50.844;4.490;2023-04-01T11:51:50;12.70;99.90
14521;DHT22;7347;50.844;4.490;2023-04-01T11:54:33;12.90;99.90
14521;DHT22;7347;50.844;4.490;2023-04-01T11:57:18;12.90;99.90
14521;DHT22;7347;50.844;4.490;2023-04-01T12:00:02;12.70;99.90
14521;DHT22;7347;50.844;4.490;2023-04-01T12:02:43;12.50;99.90
14521;DHT22;7347;50.844;4.490;2023-04-01T12:05:31;12.10;99.90
14521;DHT22;7347;50.844;4.490;2023-04-01T12:08:08;12.10;99.90
14521;DHT22;7347;50.844;4.490;2023-04-01T12:10:40;12.20;99.90
14521;DHT22;7347;50.844;4.490;2023-04-01T12:13:21;12.40;99.90
14521;DHT22;7347;50.844;4.490;2023-04-01T12:16:03;12.20;99.90
14521;DHT22;7347;50.844;4.490;2023-04-01T12:18:36;12.00;99.90
14521;DHT22;7347;50.844;4.490;2023-04-01T12:21:17;11.90;99.90
14521;DHT22;7347;50.844;4.490;2023-04-01T12:24:15;11.70;99.90
14521;DHT22;7347;50.844;4.490;2023-04-01T12:26:55;11.80;99.90
14521;DHT22;7347;50.844;4.490;2023-04-01T12:29:54;11.80;99.90
14521;DHT22;7347;50.844;4.490;2023-04-01T12:32:32;11.70;99.90
14521;DHT22;7347;50.844;4.490;2023-04-01T12:35:18;11.70;99.90
14521;DHT22;7347;50.844;4.490;2023-04-01T12:37:52;11.60;99.90
14521;DHT22;7347;50.844;4.490;2023-04-01T12:40:39;11.50;99.90
14521;DHT22;7347;50.844;4.490;2023-04-01T12:43:34;11.30;99.90
14521;DHT22;7347;50.844;4.490;2023-04-01T12:46:13;11.20;99.90
14521;DHT22;7347;50.844;4.490;2023-04-01T12:51:45;11.20;99.90
14521;DHT22;7347;50.844;4.490;2023-04-01T12:54:31;11.40;99.90
14521;DHT22;7347;50.844;4.490;2023-04-01T12:57:20;11.50;99.90
14521;DHT22;7347;50.844;4.490;2023-04-01T13:00:09;11.40;99.90
14521;DHT22;7347;50.844;4.490;2023-04-01T13:02:51;11.50;99.90
14521;DHT22;7347;50.844;4.490;2023-04-01T13:05:34;11.40;99.90
14521;DHT22;7347;50.844;4.490;2023-04-01T13:08:22;11.30;99.90
14521;DHT22;7347;50.844;4.490;2023-04-01T13:11:09;11.40;99.90
14521;DHT22;7347;50.844;4.490;2023-04-01T13:14:15;11.40;99.90
14521;DHT22;7347;50.844;4.490;2023-04-01T13:16:52;11.40;99.90
14521;DHT22;7347;50.844;4.490;2023-04-01T13:19:25;11.50;99.90
14521;DHT22;7347;50.844;4.490;2023-04-01T13:22:00;11.50;99.90
14521;DHT22;7347;50.844;4.490;2023-04-01T13:24:39;11.60;99.90
14521;DHT22;7347;50.844;4.490;2023-04-01T13:27:12;11.50;99.90
14521;DHT22;7347;50.844;4.490;2023-04-01T13:29:46;11.40;99.90
14521;DHT22;7347;50.844;4.490;2023-04-01T13:32:24;11.30;99.90
14521;DHT22;7347;50.844;4.490;2023-04-01T13:35:03;11.20;99.90
14521;DHT22;7347;50.844;4.490;2023-04-01T13:37:46;11.20;99.90
14521;DHT22;7347;50.844;4.490;2023-04-01T13:40:36;11.30;99.90
14521;DHT22;7347;50.844;4.490;2023-04-01T13:43:12;11.30;99.90
14521;DHT22;7347;50.844;4.490;2023-04-01T13:46:04;11.40;99.90
14521;DHT22;7347;50.844;4.490;2023-04-01T13:49:02;11.50;99.90
14521;DHT22;7347;50.844;4.490;2023-04-01T13:51:56;11.50;99.90
14521;DHT22;7347;50.844;4.490;2023-04-01T13:54:57;11.50;99.90
14521;DHT22;7347;50.844;4.490;2023-04-01T13:57:48;11.50;99.90
14521;DHT22;7347;50.844;4.490;2023-04-01T14:00:28;11.50;99.90
14521;DHT22;7347;50.844;4.490;2023-04-01T14:06:31;11.30;99.90
14521;DHT22;7347;50.844;4.490;2023-04-01T14:09:22;11.30;99.90
14521;DHT22;7347;50.844;4.490;2023-04-01T14:12:01;11.40;99.90
14521;DHT22;7347;50.844;4.490;2023-04-01T14:14:41;11.40;99.90
14521;DHT22;7347;50.844;4.490;2023-04-01T14:17:29;11.50;99.90
14521;DHT22;7347;50.844;4.490;2023-04-01T14:20:15;11.60;99.90
14521;DHT22;7347;50.844;4.490;2023-04-01T14:23:04;11.80;99.90
14521;DHT22;7347;50.844;4.490;2023-04-01T14:26:04;11.90;99.90
14521;DHT22;7347;50.844;4.490;2023-04-01T14:28:38;12.00;99.90
14521;DHT22;7347;50.844;4.490;2023-04-01T14:31:27;12.20;99.90
14521;DHT22;7347;50.844;4.490;2023-04-01T14:34:10;12.10;99.90
14521;DHT22;7347;50.844;4.490;2023-04-01T14:36:55;12.10;99.90
